Emerald, Pennsylvania
Current Conditions -  °F | °C
As of 3:51 PM on Thursday 20 Nov 2014 (Local Time) from KABE Reporting Station
Clear Clear  
Wind Chill: 33°   Ceiling: Unl
Heat Index: 41°   Visibility: 10mi
Dew Point: 14°   Wind: 15mph
Humidity: 33%   Direction: 280°W
Pressure: 29.88"   Gusts: 22mph
Location:  40.7371°N, 75.6374°W
Report Text: KABE 202051Z 28013G19KT 10SM CLR 05/M10 A2988 RMK AO2 SLP122 T00501100 53004
Loading
Personal Weather Stations






























Interactive Weather Map New forecast layout! Learn more

10-Day Weather Forecast

Advertisements
Track Severe Weather on mobile